createdAt,value
2022-10-14T00:01:16.022Z,77.85
2022-10-14T00:03:43.788Z,73.03
2022-10-14T00:06:17.093Z,78.82
2022-10-14T00:08:44.664Z,73.90
2022-10-14T00:11:34.246Z,75.47
2022-10-14T00:14:04.736Z,74.65
2022-10-14T00:16:34.968Z,70.82
2022-10-14T00:19:02.214Z,76.75
2022-10-14T00:21:29.983Z,72.95
2022-10-14T00:23:57.261Z,70.05
2022-10-14T00:26:28.883Z,69.95
2022-10-14T00:28:56.985Z,69.85
2022-10-14T00:31:27.409Z,69.65
2022-10-14T00:33:54.915Z,66.35
2022-10-14T00:36:24.327Z,68.40
2022-10-14T00:38:52.325Z,68.50
2022-10-14T00:41:26.532Z,74.00
2022-10-14T00:44:08.550Z,71.63
2022-10-14T00:46:38.441Z,72.13
2022-10-14T00:49:14.971Z,74.45
2022-10-14T00:51:48.595Z,64.28
2022-10-14T00:54:20.966Z,70.72
2022-10-14T00:56:50.599Z,66.50
2022-10-14T00:59:18.040Z,73.72
2022-10-14T01:01:45.250Z,65.38
2022-10-14T01:04:12.547Z,75.72
2022-10-14T01:06:51.918Z,72.18
2022-10-14T01:09:32.803Z,67.40
2022-10-14T01:12:28.691Z,73.18
2022-10-14T01:15:11.569Z,67.07
2022-10-14T01:17:41.523Z,64.85
2022-10-14T01:20:29.935Z,68.00
2022-10-14T01:23:33.559Z,76.00
2022-10-14T01:26:31.487Z,69.70
2022-10-14T01:28:58.772Z,65.22
2022-10-14T01:31:32.586Z,68.18
2022-10-14T01:34:03.163Z,64.53
2022-10-14T01:36:42.214Z,71.25
2022-10-14T01:39:23.557Z,70.95
2022-10-14T01:42:20.325Z,61.03
2022-10-14T01:44:54.931Z,63.28
2022-10-14T01:47:24.495Z,68.82
2022-10-14T01:49:59.362Z,64.00
2022-10-14T01:52:32.918Z,66.43
2022-10-14T01:55:04.048Z,69.15
2022-10-14T01:57:35.494Z,69.10
2022-10-14T02:00:04.547Z,64.78
2022-10-14T02:02:41.370Z,67.20
2022-10-14T02:05:26.710Z,61.22
2022-10-14T02:07:59.955Z,68.28
2022-10-14T02:10:51.508Z,65.70
2022-10-14T02:13:34.424Z,71.43
2022-10-14T02:16:16.429Z,62.47
2022-10-14T02:18:58.669Z,66.30
2022-10-14T02:21:42.931Z,61.35
2022-10-14T02:24:24.581Z,63.78
2022-10-14T02:26:54.793Z,65.20
2022-10-14T02:29:24.361Z,64.18
2022-10-14T02:31:54.666Z,67.80
2022-10-14T02:34:23.139Z,65.85
2022-10-14T02:36:50.704Z,62.80
2022-10-14T02:39:24.684Z,64.55
2022-10-14T02:41:51.605Z,69.68
2022-10-14T02:44:18.803Z,64.43
2022-10-14T02:46:46.728Z,65.78
2022-10-14T02:49:14.062Z,63.85
2022-10-14T02:51:43.884Z,68.15
2022-10-14T02:54:12.076Z,59.53
2022-10-14T02:56:39.128Z,63.35
2022-10-14T02:59:06.251Z,69.57
2022-10-14T03:01:37.349Z,60.20
2022-10-14T03:04:06.236Z,68.20
2022-10-14T03:06:33.366Z,65.00
2022-10-14T03:09:01.079Z,58.97
2022-10-14T03:11:30.490Z,64.60
2022-10-14T03:14:03.447Z,61.10
2022-10-14T03:16:30.395Z,59.92
2022-10-14T03:18:58.647Z,59.35
2022-10-14T03:21:39.906Z,66.88
2022-10-14T03:24:13.260Z,65.20
2022-10-14T03:26:41.373Z,63.20
2022-10-14T03:29:08.377Z,75.57
2022-10-14T03:31:50.779Z,64.78
2022-10-14T03:34:41.015Z,68.40
2022-10-14T03:37:14.746Z,65.25
2022-10-14T03:39:47.932Z,63.47
2022-10-14T03:42:16.566Z,68.13
2022-10-14T03:44:47.283Z,69.40
2022-10-14T03:47:18.328Z,78.82
2022-10-14T03:49:45.943Z,69.57
2022-10-14T03:52:21.079Z,64.60
2022-10-14T03:54:59.342Z,70.82
2022-10-14T03:57:27.384Z,67.03
2022-10-14T03:59:57.253Z,70.60
2022-10-14T04:02:32.246Z,62.00
2022-10-14T04:05:01.106Z,67.82
2022-10-14T04:07:29.020Z,61.33
2022-10-14T04:09:57.897Z,64.25
2022-10-14T04:12:25.321Z,71.45
2022-10-14T04:15:08.526Z,65.85
2022-10-14T04:17:49.292Z,69.30
2022-10-14T04:20:17.224Z,64.13
2022-10-14T04:22:44.946Z,64.70
2022-10-14T04:25:14.519Z,68.40
2022-10-14T04:27:41.458Z,68.68
2022-10-14T04:30:10.946Z,65.25
2022-10-14T04:32:49.363Z,67.53
2022-10-14T04:35:17.607Z,66.53
2022-10-14T04:37:48.367Z,74.25
2022-10-14T04:40:25.718Z,70.00
2022-10-14T04:42:58.739Z,77.55
2022-10-14T04:45:35.648Z,77.45
2022-10-14T04:48:03.895Z,76.35
2022-10-14T04:50:35.285Z,81.90
2022-10-14T04:53:23.317Z,78.10
2022-10-14T04:56:08.762Z,76.28
2022-10-14T04:58:41.488Z,83.00
2022-10-14T05:01:09.131Z,80.88
2022-10-14T05:03:39.940Z,78.57
2022-10-14T05:06:06.974Z,72.55
2022-10-14T05:08:38.695Z,84.03
2022-10-14T05:11:08.514Z,78.10
2022-10-14T05:13:52.539Z,73.70
2022-10-14T05:16:19.458Z,78.50
2022-10-14T05:18:46.377Z,82.63
2022-10-14T05:21:14.180Z,86.68
2022-10-14T05:23:59.827Z,92.00
2022-10-14T05:26:29.920Z,80.38
2022-10-14T05:28:59.967Z,90.55
2022-10-14T05:31:28.759Z,83.35
2022-10-14T05:34:05.223Z,87.75
2022-10-14T05:36:32.483Z,86.22
2022-10-14T05:39:01.061Z,82.53
2022-10-14T05:41:33.995Z,90.75
2022-10-14T05:44:02.323Z,95.90
2022-10-14T05:46:30.009Z,96.45
2022-10-14T05:48:57.744Z,88.35
2022-10-14T05:51:25.243Z,109.07
2022-10-14T05:53:59.365Z,88.95
2022-10-14T05:56:26.617Z,100.82
2022-10-14T05:58:54.960Z,97.80
2022-10-14T06:01:25.312Z,85.72
2022-10-14T06:03:53.067Z,89.70
2022-10-14T06:06:20.170Z,101.28
2022-10-14T06:08:47.281Z,96.10
2022-10-14T06:11:14.488Z,92.93
2022-10-14T06:13:42.151Z,89.03
2022-10-14T06:16:11.082Z,98.15
2022-10-14T06:18:38.869Z,95.32
2022-10-14T06:21:07.228Z,87.70
2022-10-14T06:23:34.201Z,99.40
2022-10-14T06:26:04.989Z,97.30
2022-10-14T06:28:32.208Z,100.65
2022-10-14T06:30:59.106Z,87.38
2022-10-14T06:33:28.372Z,93.60
2022-10-14T06:35:56.329Z,87.97
2022-10-14T06:38:23.592Z,94.80
2022-10-14T06:40:52.170Z,88.10
2022-10-14T06:43:20.069Z,92.28
2022-10-14T06:45:48.239Z,89.70
2022-10-14T06:48:15.567Z,92.35
2022-10-14T06:50:43.055Z,95.40
2022-10-14T06:53:10.115Z,96.93
2022-10-14T06:55:36.995Z,97.40
2022-10-14T06:58:03.942Z,95.55
2022-10-14T07:00:30.808Z,98.30
2022-10-14T07:02:59.478Z,103.57
2022-10-14T07:05:27.099Z,109.22
2022-10-14T07:07:54.323Z,107.13
2022-10-14T07:10:21.287Z,99.85
2022-10-14T07:12:48.563Z,103.10
2022-10-14T07:15:15.500Z,103.05
2022-10-14T07:17:42.531Z,110.05
2022-10-14T07:20:10.120Z,94.18
2022-10-14T07:22:38.889Z,99.95
2022-10-14T07:25:06.901Z,102.57
2022-10-14T07:27:34.117Z,105.03
2022-10-14T07:30:01.807Z,100.18
2022-10-14T07:32:28.916Z,97.13
2022-10-14T07:34:55.832Z,93.03
2022-10-14T07:37:23.236Z,99.40
2022-10-14T07:39:50.656Z,104.68
2022-10-14T07:42:17.788Z,101.88
2022-10-14T07:44:45.971Z,100.68
2022-10-14T07:47:13.225Z,99.82
2022-10-14T07:49:40.407Z,95.28
2022-10-14T07:52:07.623Z,90.38
2022-10-14T07:54:34.636Z,100.88
2022-10-14T07:57:01.684Z,95.45
2022-10-14T07:59:28.602Z,95.40
2022-10-14T08:01:56.834Z,84.93
2022-10-14T08:04:25.222Z,92.88
2022-10-14T08:06:52.828Z,93.35
2022-10-14T08:09:19.975Z,84.90
2022-10-14T08:11:47.456Z,88.50
2022-10-14T08:14:14.941Z,100.60
2022-10-14T08:16:41.850Z,94.68
2022-10-14T08:19:14.689Z,86.80
2022-10-14T08:21:43.187Z,92.00
2022-10-14T08:24:10.985Z,94.70
2022-10-14T08:26:50.244Z,93.65
2022-10-14T08:29:18.629Z,95.15
2022-10-14T08:31:46.510Z,92.13
2022-10-14T08:34:13.601Z,98.85
2022-10-14T08:36:41.003Z,99.65
2022-10-14T08:42:16.265Z,87.60
2022-10-14T08:44:55.807Z,86.50
2022-10-14T08:47:29.747Z,86.40
2022-10-14T08:50:25.466Z,91.15
2022-10-14T08:53:15.262Z,90.50
2022-10-14T08:55:49.660Z,99.05
2022-10-14T08:58:35.534Z,99.53
2022-10-14T09:01:23.624Z,92.75
2022-10-14T09:03:59.839Z,91.70
2022-10-14T09:06:29.527Z,88.78
2022-10-14T09:09:09.748Z,94.45
2022-10-14T09:11:43.679Z,89.80
2022-10-14T09:14:18.015Z,89.18
2022-10-14T09:16:50.458Z,88.95
2022-10-14T09:19:36.889Z,92.25
2022-10-14T09:22:13.037Z,95.40
2022-10-14T09:24:42.133Z,88.00
2022-10-14T09:27:17.947Z,89.45
2022-10-14T09:29:50.671Z,84.85
2022-10-14T09:32:40.443Z,79.95
2022-10-14T09:35:35.503Z,92.22
2022-10-14T09:38:02.732Z,85.28
2022-10-14T09:40:35.607Z,85.82
2022-10-14T09:43:08.265Z,85.88
2022-10-14T09:45:54.037Z,78.32
2022-10-14T09:48:37.501Z,72.18
2022-10-14T09:51:09.363Z,69.30
2022-10-14T09:53:45.369Z,76.30
2022-10-14T09:56:12.963Z,78.85
2022-10-14T09:58:53.949Z,75.35
2022-10-14T10:01:29.680Z,85.78
2022-10-14T10:03:57.093Z,93.65
2022-10-14T10:06:26.649Z,72.78
2022-10-14T10:08:53.485Z,78.18
2022-10-14T10:11:35.667Z,83.30
2022-10-14T10:14:25.090Z,72.13
2022-10-14T10:17:20.500Z,70.50
2022-10-14T10:19:52.357Z,66.28
2022-10-14T10:22:26.590Z,71.32
2022-10-14T10:25:03.502Z,55.85
2022-10-14T10:27:36.298Z,70.22
2022-10-14T10:30:18.071Z,68.40
2022-10-14T10:32:50.560Z,63.53
2022-10-14T10:35:28.186Z,72.15
2022-10-14T10:38:32.241Z,67.90
2022-10-14T10:41:15.224Z,65.20
2022-10-14T10:44:09.601Z,60.97
2022-10-14T10:46:36.523Z,51.33
2022-10-14T10:49:31.044Z,49.80
2022-10-14T10:52:36.703Z,48.88
2022-10-14T10:55:18.526Z,63.17
2022-10-14T10:58:06.151Z,57.92
2022-10-14T11:00:49.751Z,52.53
2022-10-14T11:03:47.992Z,45.42
2022-10-14T11:06:47.186Z,49.42
2022-10-14T11:09:57.552Z,49.75
2022-10-14T11:12:38.734Z,44.75
2022-10-14T11:15:14.288Z,43.28
2022-10-14T11:18:22.896Z,41.85
2022-10-14T11:21:10.861Z,42.85
2022-10-14T11:23:50.225Z,41.78
2022-10-14T11:26:42.979Z,43.00
2022-10-14T11:29:31.397Z,40.97
2022-10-14T11:32:23.548Z,45.30
2022-10-14T11:34:53.979Z,38.00
2022-10-14T11:37:26.530Z,40.45
2022-10-14T11:40:00.479Z,37.03
2022-10-14T11:42:50.916Z,38.67
2022-10-14T11:45:56.249Z,42.40
2022-10-14T11:48:34.155Z,43.50
2022-10-14T11:51:12.566Z,38.22
2022-10-14T11:53:58.999Z,39.65
2022-10-14T11:56:42.824Z,44.28
2022-10-14T11:59:35.024Z,40.13
2022-10-14T12:02:26.929Z,41.55
2022-10-14T12:05:05.916Z,45.15
2022-10-14T12:07:45.174Z,40.88
2022-10-14T12:10:42.319Z,37.00
2022-10-14T12:13:15.736Z,36.83
2022-10-14T12:15:49.110Z,38.13
2022-10-14T12:18:19.382Z,48.45
2022-10-14T12:21:19.782Z,39.90
2022-10-14T12:23:55.573Z,43.75
2022-10-14T12:27:04.809Z,41.47
2022-10-14T12:29:46.275Z,39.15
2022-10-14T12:32:27.521Z,40.20
2022-10-14T12:34:55.455Z,36.70
2022-10-14T12:37:31.346Z,35.10
2022-10-14T12:40:07.136Z,41.05
2022-10-14T12:42:58.871Z,40.72
2022-10-14T12:45:28.084Z,39.58
2022-10-14T12:48:12.678Z,42.97
2022-10-14T12:50:42.525Z,41.17
2022-10-14T12:53:29.442Z,41.47
2022-10-14T12:55:59.360Z,41.50
2022-10-14T12:58:55.255Z,42.20
2022-10-14T13:01:22.246Z,42.80
2022-10-14T13:06:37.584Z,43.55
2022-10-14T13:09:14.014Z,39.38
2022-10-14T13:11:43.112Z,40.55
2022-10-14T13:14:27.175Z,33.47
2022-10-14T13:16:56.189Z,40.33
2022-10-14T13:19:35.097Z,40.25
2022-10-14T13:22:03.946Z,43.90
2022-10-14T13:24:38.511Z,48.47
2022-10-14T13:27:52.634Z,46.60
2022-10-14T13:30:38.530Z,41.05
2022-10-14T13:33:39.321Z,50.25
2022-10-14T13:36:18.400Z,44.70
2022-10-14T13:38:59.311Z,42.38
2022-10-14T13:41:29.811Z,40.63
2022-10-14T13:44:00.023Z,41.05
2022-10-14T13:46:42.343Z,43.38
2022-10-14T13:51:59.818Z,40.50
2022-10-14T13:54:28.537Z,45.08
2022-10-14T14:02:49.069Z,46.90
2022-10-14T14:05:26.299Z,45.85
2022-10-14T14:11:03.670Z,45.97
2022-10-14T14:13:32.341Z,45.33
2022-10-14T14:15:59.337Z,45.60
2022-10-14T14:18:43.315Z,48.55
2022-10-14T14:21:23.339Z,46.25
2022-10-14T14:23:56.557Z,43.33
2022-10-14T14:26:40.029Z,45.88
2022-10-14T14:29:15.984Z,41.17
2022-10-14T14:34:31.783Z,53.63
2022-10-14T14:37:11.044Z,47.72
2022-10-14T14:40:02.930Z,43.63
2022-10-14T14:42:36.587Z,39.13
2022-10-14T14:45:18.131Z,43.85
2022-10-14T14:47:48.405Z,42.65
2022-10-14T14:50:33.741Z,45.15
2022-10-14T14:53:04.159Z,43.92
2022-10-14T14:56:00.559Z,41.47
2022-10-14T14:58:43.015Z,47.67
2022-10-14T15:01:26.347Z,44.63
2022-10-14T15:04:12.925Z,47.20
2022-10-14T15:06:51.189Z,40.83
2022-10-14T15:09:30.394Z,45.08
2022-10-14T15:11:58.003Z,46.25
2022-10-14T15:14:49.255Z,47.83
2022-10-14T15:17:46.303Z,45.85
2022-10-14T15:20:38.310Z,45.95
2022-10-14T15:23:39.153Z,47.38
2022-10-14T15:26:24.024Z,50.03
2022-10-14T15:29:10.486Z,43.33
2022-10-14T15:31:39.361Z,40.45
2022-10-14T15:34:22.795Z,41.30
2022-10-14T15:36:51.288Z,47.95
2022-10-14T15:39:19.440Z,44.50
2022-10-14T15:41:47.424Z,52.03
2022-10-14T15:44:14.837Z,49.30
2022-10-14T15:47:02.902Z,54.92
2022-10-14T15:49:34.261Z,50.72
2022-10-14T15:52:01.271Z,51.28
2022-10-14T15:54:28.441Z,55.53
2022-10-14T15:59:28.402Z,54.95
2022-10-14T16:01:55.406Z,53.80
2022-10-14T16:04:24.936Z,56.50
2022-10-14T16:06:55.543Z,57.65
2022-10-14T16:09:24.848Z,63.47
2022-10-14T16:11:57.374Z,60.13
2022-10-14T16:14:27.098Z,57.33
2022-10-14T16:16:54.702Z,58.20
2022-10-14T16:19:21.875Z,68.05
2022-10-14T16:21:50.432Z,67.28
2022-10-14T16:24:20.340Z,67.32
2022-10-14T16:26:51.538Z,61.17
2022-10-14T16:29:20.380Z,63.05
2022-10-14T16:31:49.810Z,75.63
2022-10-14T16:34:22.697Z,64.65
2022-10-14T16:36:50.969Z,64.82
2022-10-14T16:39:19.638Z,64.53
2022-10-14T16:41:46.850Z,68.35
2022-10-14T16:44:24.854Z,72.38
2022-10-14T16:47:14.761Z,64.15
2022-10-14T16:49:44.274Z,67.85
2022-10-14T16:52:11.765Z,65.93
2022-10-14T16:54:38.646Z,70.50
2022-10-14T16:57:06.431Z,71.18
2022-10-14T16:59:33.563Z,71.75
2022-10-14T17:02:01.491Z,76.35
2022-10-14T17:04:28.547Z,75.30
2022-10-14T17:06:58.421Z,73.85
2022-10-14T17:12:02.244Z,68.03
2022-10-14T17:14:31.198Z,80.88
2022-10-14T17:16:59.848Z,65.25
2022-10-14T17:19:27.359Z,66.88
2022-10-14T17:21:54.362Z,67.05
2022-10-14T17:24:22.219Z,60.15
2022-10-14T17:26:49.369Z,61.78
2022-10-14T17:29:16.436Z,62.05
2022-10-14T17:31:45.306Z,65.47
2022-10-14T17:34:12.804Z,62.60
2022-10-14T17:36:41.488Z,57.80
2022-10-14T17:39:18.673Z,57.97
2022-10-14T17:41:51.278Z,60.28
2022-10-14T17:44:18.435Z,57.42
2022-10-14T17:46:45.590Z,63.10
2022-10-14T17:49:13.167Z,57.58
2022-10-14T17:51:40.247Z,59.75
2022-10-14T17:54:10.406Z,60.95
2022-10-14T17:56:39.317Z,60.58
2022-10-14T17:59:08.493Z,58.85
2022-10-14T18:02:02.279Z,59.65
2022-10-14T18:04:22.975Z,63.78
2022-10-14T18:06:50.013Z,56.42
2022-10-14T18:09:16.916Z,64.68
2022-10-14T18:14:34.573Z,67.13
2022-10-14T18:17:01.688Z,64.40
2022-10-14T18:19:28.769Z,61.15
2022-10-14T18:21:56.162Z,60.38
2022-10-14T18:24:23.605Z,67.68
2022-10-14T18:26:53.786Z,64.65
2022-10-14T18:29:20.970Z,62.47
2022-10-14T18:34:24.904Z,64.22
2022-10-14T18:36:51.816Z,69.82
2022-10-14T18:39:20.322Z,64.53
2022-10-14T18:41:47.532Z,64.10
2022-10-14T18:44:15.256Z,64.47
2022-10-14T18:46:42.412Z,61.97
2022-10-14T18:49:11.465Z,66.53
2022-10-14T18:51:40.229Z,64.43
2022-10-14T18:54:18.697Z,64.38
2022-10-14T18:56:46.402Z,62.42
2022-10-14T18:59:18.147Z,64.55
2022-10-14T19:01:46.443Z,65.05
2022-10-14T19:04:15.143Z,78.72
2022-10-14T19:06:48.846Z,70.20
2022-10-14T19:09:17.494Z,68.18
2022-10-14T19:11:44.760Z,64.60
2022-10-14T19:14:14.324Z,63.90
2022-10-14T19:16:41.986Z,64.25
2022-10-14T19:19:14.296Z,64.40
2022-10-14T19:21:41.393Z,58.42
2022-10-14T19:24:08.437Z,63.10
2022-10-14T19:26:38.174Z,58.85
2022-10-14T19:29:11.458Z,59.97
2022-10-14T19:31:40.655Z,57.05
2022-10-14T19:34:11.882Z,55.30
2022-10-14T19:36:40.573Z,61.13
2022-10-14T19:39:10.213Z,58.80
2022-10-14T19:41:44.367Z,57.33
2022-10-14T19:44:12.698Z,51.47
2022-10-14T19:46:41.602Z,51.13
2022-10-14T19:49:11.229Z,54.50
2022-10-14T19:51:38.890Z,52.65
2022-10-14T19:54:06.023Z,50.03
2022-10-14T19:56:33.219Z,49.30
2022-10-14T19:59:01.814Z,49.90
2022-10-14T20:01:30.521Z,48.47
2022-10-14T20:04:01.763Z,57.33
2022-10-14T20:06:33.895Z,55.72
2022-10-14T20:09:01.524Z,57.47
2022-10-14T20:11:28.856Z,57.25
2022-10-14T20:13:56.069Z,55.85
2022-10-14T20:16:23.302Z,59.13
2022-10-14T20:18:50.400Z,61.00
2022-10-14T20:21:17.706Z,55.28
2022-10-14T20:23:44.935Z,58.33
2022-10-14T20:26:17.414Z,52.38
2022-10-14T20:28:44.691Z,51.83
2022-10-14T20:31:14.843Z,52.63
2022-10-14T20:33:43.645Z,48.90
2022-10-14T20:36:14.326Z,62.10
2022-10-14T20:38:42.987Z,53.08
2022-10-14T20:41:15.629Z,57.45
2022-10-14T20:43:43.348Z,54.45
2022-10-14T20:46:10.408Z,60.22
2022-10-14T20:48:39.031Z,56.55
2022-10-14T20:51:12.379Z,56.55
2022-10-14T20:56:11.204Z,60.17
2022-10-14T20:58:38.546Z,60.40
2022-10-14T21:01:05.503Z,63.63
2022-10-14T21:03:32.811Z,68.50
2022-10-14T21:06:06.252Z,59.22
2022-10-14T21:08:33.522Z,63.55
2022-10-14T21:11:14.786Z,65.18
2022-10-14T21:13:44.571Z,63.10
2022-10-14T21:16:23.929Z,62.35
2022-10-14T21:18:57.476Z,62.25
2022-10-14T21:21:27.035Z,56.97
2022-10-14T21:23:54.737Z,59.08
2022-10-14T21:26:21.734Z,66.97
2022-10-14T21:28:48.851Z,65.97
2022-10-14T21:31:19.106Z,63.22
2022-10-14T21:33:55.780Z,62.38
2022-10-14T21:36:22.782Z,64.85
2022-10-14T21:38:49.723Z,63.13
2022-10-14T21:41:16.731Z,69.03
2022-10-14T21:43:43.586Z,69.28
2022-10-14T21:46:13.263Z,61.47
2022-10-14T21:48:41.494Z,65.85
2022-10-14T21:51:14.474Z,67.88
2022-10-14T21:53:42.667Z,66.82
2022-10-14T21:56:10.599Z,63.90
2022-10-14T21:58:38.023Z,60.72
2022-10-14T22:01:08.113Z,61.67
2022-10-14T22:03:36.425Z,63.40
2022-10-14T22:08:36.105Z,63.60
2022-10-14T22:11:04.006Z,65.20
2022-10-14T22:13:31.773Z,63.10
2022-10-14T22:15:58.728Z,60.42
2022-10-14T22:18:25.690Z,60.75
2022-10-14T22:21:03.804Z,58.28
2022-10-14T22:23:31.963Z,57.55
2022-10-14T22:26:04.547Z,59.78
2022-10-14T22:28:31.856Z,58.60
2022-10-14T22:31:20.343Z,58.20
2022-10-14T22:33:48.141Z,57.15
2022-10-14T22:36:23.794Z,55.60
2022-10-14T22:38:52.930Z,52.92
2022-10-14T22:41:21.713Z,56.30
2022-10-14T22:43:50.459Z,58.17
2022-10-14T22:46:21.398Z,56.67
2022-10-14T22:48:49.242Z,54.78
2022-10-14T22:51:19.038Z,60.05
2022-10-14T22:53:46.834Z,60.25
2022-10-14T22:56:16.768Z,49.50
2022-10-14T22:58:44.375Z,47.35
2022-10-14T23:01:14.111Z,43.28
2022-10-14T23:03:41.655Z,43.38
2022-10-14T23:06:11.930Z,44.60
2022-10-14T23:08:39.349Z,46.67
2022-10-14T23:11:07.225Z,44.50
2022-10-14T23:13:34.608Z,48.00
2022-10-14T23:16:04.124Z,54.33
2022-10-14T23:18:34.445Z,50.05
2022-10-14T23:21:29.646Z,47.63
2022-10-14T23:23:59.645Z,48.83
2022-10-14T23:26:31.584Z,46.08
2022-10-14T23:29:00.074Z,55.75
2022-10-14T23:31:30.282Z,47.85
2022-10-14T23:34:01.741Z,49.60
2022-10-14T23:36:28.917Z,42.13
2022-10-14T23:38:55.889Z,41.10
2022-10-14T23:41:23.680Z,44.45
2022-10-14T23:43:52.151Z,42.80
2022-10-14T23:46:19.956Z,49.15
2022-10-14T23:48:55.472Z,45.63
2022-10-14T23:51:34.452Z,48.35
2022-10-14T23:54:01.582Z,51.22
2022-10-14T23:56:28.612Z,50.40
2022-10-14T23:58:55.537Z,55.65
